createdAt,value
2023-02-03T00:01:04.978Z,95689.06
2023-02-03T00:03:31.649Z,95691.09
2023-02-03T00:06:00.282Z,95673.03
2023-02-03T00:08:27.165Z,95687.91
2023-02-03T00:10:55.000Z,95686.28
2023-02-03T00:13:22.556Z,95703.88
2023-02-03T00:15:49.248Z,95688.28
2023-02-03T00:18:16.151Z,95677.78
2023-02-03T00:20:42.899Z,95699.13
2023-02-03T00:23:11.967Z,95690.22
2023-02-03T00:25:40.366Z,95678.78
2023-02-03T00:28:07.663Z,95669.56
2023-02-03T00:30:36.046Z,95705.09
2023-02-03T00:33:04.066Z,95687.63
2023-02-03T00:35:31.280Z,95698.34
2023-02-03T00:37:58.448Z,95705.69
2023-02-03T00:40:27.165Z,95722.81
2023-02-03T00:42:55.300Z,95709.22
2023-02-03T00:45:22.635Z,95694.91
2023-02-03T00:47:50.051Z,95688.56
2023-02-03T00:50:17.095Z,95694.16
2023-02-03T00:52:43.851Z,95679.56
2023-02-03T00:55:10.564Z,95692.72
2023-02-03T00:57:37.662Z,95692.38
2023-02-03T01:00:05.663Z,95692.81
2023-02-03T01:02:32.463Z,95694.69
2023-02-03T01:04:59.313Z,95680.75
2023-02-03T01:07:26.743Z,95682.03
2023-02-03T01:09:53.428Z,95692.63
2023-02-03T01:12:20.131Z,95668.53
2023-02-03T01:14:46.851Z,95682.47
2023-02-03T01:17:13.564Z,95697.78
2023-02-03T01:19:40.588Z,95671.44
2023-02-03T01:22:07.641Z,95680.00
2023-02-03T01:24:34.358Z,95690.66
2023-02-03T01:27:01.144Z,95698.66
2023-02-03T01:29:28.199Z,95687.69
2023-02-03T01:31:55.811Z,95714.66
2023-02-03T01:34:22.993Z,95699.00
2023-02-03T01:36:49.713Z,95701.59
2023-02-03T01:39:16.762Z,95715.44
2023-02-03T01:41:45.907Z,95696.63
2023-02-03T01:44:40.879Z,95692.47
2023-02-03T01:47:28.234Z,95691.28
2023-02-03T01:49:54.919Z,95696.25
2023-02-03T01:52:22.184Z,95687.25
2023-02-03T01:54:52.248Z,95696.25
2023-02-03T01:57:25.941Z,95682.25
2023-02-03T01:59:56.169Z,95694.03
2023-02-03T02:02:23.633Z,95680.84
2023-02-03T02:05:02.206Z,95691.63
2023-02-03T02:07:29.842Z,95688.28
2023-02-03T02:09:57.227Z,95690.72
2023-02-03T02:12:24.046Z,95682.22
2023-02-03T02:14:50.947Z,95683.75
2023-02-03T02:18:04.250Z,95689.00
2023-02-03T02:20:57.297Z,95680.16
2023-02-03T02:23:46.447Z,95689.63
2023-02-03T02:26:25.318Z,95683.53
2023-02-03T02:28:57.741Z,95683.78
2023-02-03T02:31:49.669Z,95694.94
2023-02-03T02:34:35.827Z,95681.31
2023-02-03T02:37:06.524Z,95688.09
2023-02-03T02:39:51.008Z,95692.41
2023-02-03T02:42:24.559Z,95693.03
2023-02-03T02:44:57.115Z,95687.41
2023-02-03T02:47:24.777Z,95678.94
2023-02-03T02:50:05.801Z,95689.13
2023-02-03T02:52:36.787Z,95688.03
2023-02-03T02:55:11.813Z,95693.19
2023-02-03T02:57:39.697Z,95706.63
2023-02-03T03:00:08.146Z,95701.47
2023-02-03T03:02:36.564Z,95712.69
2023-02-03T03:05:08.048Z,95706.22
2023-02-03T03:07:55.564Z,95703.53
2023-02-03T03:10:29.236Z,95673.50
2023-02-03T03:13:10.402Z,95668.13
2023-02-03T03:15:41.086Z,95664.22
2023-02-03T03:18:11.006Z,95669.41
2023-02-03T03:20:42.983Z,95693.75
2023-02-03T03:23:24.799Z,95671.72
2023-02-03T03:26:02.837Z,95682.13
2023-02-03T03:29:03.247Z,95674.72
2023-02-03T03:31:30.554Z,95686.97
2023-02-03T03:33:57.809Z,95681.75
2023-02-03T03:36:32.253Z,95693.56
2023-02-03T03:39:08.405Z,95693.22
2023-02-03T03:41:43.624Z,95693.88
2023-02-03T03:44:15.633Z,95688.13
2023-02-03T03:47:13.059Z,95684.91
2023-02-03T03:49:43.739Z,95664.19
2023-02-03T03:52:14.771Z,95663.19
2023-02-03T03:54:44.768Z,95644.19
2023-02-03T03:57:43.920Z,95644.03
2023-02-03T04:00:15.163Z,95645.25
2023-02-03T04:02:46.516Z,95635.13
2023-02-03T04:05:14.410Z,95655.97
2023-02-03T04:07:46.575Z,95654.13
2023-02-03T04:10:30.573Z,95671.19
2023-02-03T04:12:57.450Z,95665.72
2023-02-03T04:15:24.727Z,95661.91
2023-02-03T04:17:51.550Z,95640.59
2023-02-03T04:20:18.725Z,95650.16
2023-02-03T04:22:47.312Z,95665.38
2023-02-03T04:25:14.190Z,95659.44
2023-02-03T04:27:41.150Z,95650.06
2023-02-03T04:30:09.327Z,95658.56
2023-02-03T04:32:36.156Z,95670.44
2023-02-03T04:35:04.903Z,95690.66
2023-02-03T04:37:32.320Z,95688.88
2023-02-03T04:39:59.169Z,95692.53
2023-02-03T04:42:26.757Z,95698.34
2023-02-03T04:44:53.819Z,95690.13
2023-02-03T04:47:21.018Z,95687.97
2023-02-03T04:49:47.767Z,95676.81
2023-02-03T04:52:16.149Z,95679.50
2023-02-03T04:54:42.859Z,95666.88
2023-02-03T04:57:09.941Z,95688.81
2023-02-03T04:59:36.656Z,95702.91
2023-02-03T05:02:04.376Z,95722.22
2023-02-03T05:04:31.958Z,95716.50
2023-02-03T05:06:59.259Z,95719.09
2023-02-03T05:09:26.572Z,95700.44
2023-02-03T05:11:53.992Z,95703.94
2023-02-03T05:14:21.480Z,95720.16
2023-02-03T05:16:48.302Z,95701.81
2023-02-03T05:19:15.108Z,95710.75
2023-02-03T05:21:41.935Z,95720.13
2023-02-03T05:24:09.070Z,95701.28
2023-02-03T05:26:36.462Z,95721.00
2023-02-03T05:29:04.054Z,95708.66
2023-02-03T05:31:30.868Z,95702.34
2023-02-03T05:33:57.968Z,95720.06
2023-02-03T05:36:24.648Z,95717.25
2023-02-03T05:38:51.555Z,95690.28
2023-02-03T05:41:50.279Z,95677.50
2023-02-03T05:44:17.098Z,95703.13
2023-02-03T05:46:44.249Z,95685.38
2023-02-03T05:49:11.121Z,95686.66
2023-02-03T05:51:39.606Z,95686.78
2023-02-03T05:54:07.309Z,95673.25
2023-02-03T05:56:34.532Z,95674.72
2023-02-03T05:59:01.289Z,95668.38
2023-02-03T06:01:28.297Z,95664.63
2023-02-03T06:03:55.251Z,95665.47
2023-02-03T06:06:22.087Z,95680.56
2023-02-03T06:08:51.203Z,95683.75
2023-02-03T06:11:18.493Z,95696.44
2023-02-03T06:13:45.226Z,95696.19
2023-02-03T06:16:11.976Z,95695.03
2023-02-03T06:18:38.755Z,95704.63
2023-02-03T06:21:05.831Z,95721.00
2023-02-03T06:23:32.781Z,95716.97
2023-02-03T06:26:02.655Z,95727.72
2023-02-03T06:28:30.314Z,95720.78
2023-02-03T06:30:57.091Z,95707.16
2023-02-03T06:33:23.883Z,95711.53
2023-02-03T06:35:50.829Z,95703.09
2023-02-03T06:38:17.565Z,95717.00
2023-02-03T06:40:46.961Z,95733.31
2023-02-03T06:43:14.077Z,95730.00
2023-02-03T06:45:41.279Z,95722.28
2023-02-03T06:48:08.759Z,95721.38
2023-02-03T06:50:36.011Z,95727.91
2023-02-03T06:53:02.703Z,95732.84
2023-02-03T06:55:29.879Z,95698.91
2023-02-03T06:57:56.532Z,95726.97
2023-02-03T07:00:24.429Z,95719.44
2023-02-03T07:02:55.451Z,95702.03
2023-02-03T07:05:23.485Z,95726.22
2023-02-03T07:07:51.425Z,95745.34
2023-02-03T07:10:18.705Z,95743.41
2023-02-03T07:12:46.369Z,95770.06
2023-02-03T07:15:14.079Z,95773.63
2023-02-03T07:17:40.760Z,95743.81
2023-02-03T07:20:08.330Z,95750.66
2023-02-03T07:22:36.526Z,95718.94
2023-02-03T07:25:03.296Z,95720.81
2023-02-03T07:27:30.574Z,95709.03
2023-02-03T07:29:57.251Z,95708.09
2023-02-03T07:32:24.046Z,95691.88
2023-02-03T07:34:50.802Z,95700.59
2023-02-03T07:37:17.565Z,95691.44
2023-02-03T07:39:46.059Z,95681.81
2023-02-03T07:42:12.814Z,95710.97
2023-02-03T07:44:44.403Z,95718.81
2023-02-03T07:47:12.617Z,95676.34
2023-02-03T07:49:39.449Z,95667.13
2023-02-03T07:52:06.343Z,95648.44
2023-02-03T07:54:33.306Z,95679.00
2023-02-03T07:57:00.819Z,95657.72
2023-02-03T07:59:27.800Z,95660.88
2023-02-03T08:01:56.366Z,95666.59
2023-02-03T08:04:24.433Z,95687.28
2023-02-03T08:06:51.364Z,95682.75
2023-02-03T08:09:18.477Z,95676.19
2023-02-03T08:11:45.583Z,95706.31
2023-02-03T08:14:12.355Z,95686.91
2023-02-03T08:16:39.184Z,95671.19
2023-02-03T08:19:06.119Z,95667.13
2023-02-03T08:21:32.835Z,95666.91
2023-02-03T08:23:59.796Z,95670.59
2023-02-03T08:26:26.475Z,95661.00
2023-02-03T08:28:53.383Z,95691.09
2023-02-03T08:31:20.420Z,95691.88
2023-02-03T08:33:47.263Z,95683.38
2023-02-03T08:36:14.079Z,95693.47
2023-02-03T08:38:42.304Z,95670.31
2023-02-03T08:41:14.635Z,95676.13
2023-02-03T08:43:42.023Z,95685.75
2023-02-03T08:46:11.300Z,95689.06
2023-02-03T08:48:38.724Z,95697.69
2023-02-03T08:51:13.930Z,95726.16
2023-02-03T08:53:40.732Z,95709.81
2023-02-03T08:56:10.305Z,95743.09
2023-02-03T08:58:37.541Z,95730.97
2023-02-03T09:01:13.695Z,95713.91
2023-02-03T09:03:40.495Z,95729.25
2023-02-03T09:06:09.302Z,95720.75
2023-02-03T09:08:36.297Z,95727.84
2023-02-03T09:11:03.182Z,95714.66
2023-02-03T09:13:30.285Z,95715.03
2023-02-03T09:16:01.320Z,95726.16
2023-02-03T09:18:28.048Z,95717.06
2023-02-03T09:21:02.010Z,95719.03
2023-02-03T09:23:28.927Z,95725.06
2023-02-03T09:25:55.821Z,95714.84
2023-02-03T09:28:22.779Z,95711.72
2023-02-03T09:30:49.510Z,95701.25
2023-02-03T09:33:16.840Z,95717.13
2023-02-03T09:35:52.261Z,95718.69
2023-02-03T09:38:19.699Z,95715.81
2023-02-03T09:40:55.439Z,95727.06
2023-02-03T09:43:56.982Z,95721.94
2023-02-03T09:46:30.489Z,95692.25
2023-02-03T09:49:06.051Z,95690.97
2023-02-03T09:51:40.573Z,95687.72
2023-02-03T09:54:07.237Z,95685.84
2023-02-03T09:56:36.878Z,95705.16
2023-02-03T09:59:04.013Z,95712.09
2023-02-03T10:01:43.856Z,95703.13
2023-02-03T10:04:32.112Z,95707.31
2023-02-03T10:07:14.165Z,95705.91
2023-02-03T10:10:03.185Z,95696.09
2023-02-03T10:12:47.766Z,95702.66
2023-02-03T10:15:46.845Z,95687.81
2023-02-03T10:18:19.780Z,95690.47
2023-02-03T10:20:54.985Z,95707.25
2023-02-03T10:23:43.177Z,95697.94
2023-02-03T10:26:17.384Z,95706.53
2023-02-03T10:28:58.759Z,95706.91
2023-02-03T10:31:28.589Z,95736.66
2023-02-03T10:34:02.292Z,95703.63
2023-02-03T10:37:02.957Z,95716.00
2023-02-03T10:40:04.264Z,95697.59
2023-02-03T10:42:52.720Z,95688.69
2023-02-03T10:45:21.048Z,95679.78
2023-02-03T10:47:52.168Z,95691.97
2023-02-03T10:50:21.100Z,95698.13
2023-02-03T10:52:48.450Z,95683.03
2023-02-03T10:55:21.353Z,95688.56
2023-02-03T10:57:48.324Z,95696.59
2023-02-03T11:00:18.786Z,95697.69
2023-02-03T11:02:47.770Z,95706.56
2023-02-03T11:05:17.643Z,95709.78
2023-02-03T11:07:45.129Z,95707.16
2023-02-03T11:10:32.396Z,95703.63
2023-02-03T11:13:17.553Z,95708.63
2023-02-03T11:15:51.584Z,95717.63
2023-02-03T11:18:34.290Z,95713.00
2023-02-03T11:21:07.680Z,95705.94
2023-02-03T11:23:34.648Z,95707.09
2023-02-03T11:26:11.581Z,95684.88
2023-02-03T11:28:43.372Z,95661.75
2023-02-03T11:31:26.961Z,95654.97
2023-02-03T11:33:57.902Z,95662.78
2023-02-03T11:36:29.817Z,95638.69
2023-02-03T11:39:25.245Z,95649.16
2023-02-03T11:41:52.566Z,95646.44
2023-02-03T11:44:29.387Z,95663.09
2023-02-03T11:47:04.178Z,95631.78
2023-02-03T11:49:45.257Z,95651.75
2023-02-03T11:52:30.443Z,95624.59
2023-02-03T11:55:32.960Z,95652.72
2023-02-03T11:58:08.018Z,95645.25
2023-02-03T12:00:44.215Z,95630.41
2023-02-03T12:03:35.066Z,95615.88
2023-02-03T12:06:17.084Z,95606.34
2023-02-03T12:09:08.927Z,95608.75
2023-02-03T12:11:38.481Z,95621.84
2023-02-03T12:14:30.006Z,95629.25
2023-02-03T12:17:25.344Z,95638.97
2023-02-03T12:20:01.335Z,95609.72
2023-02-03T12:22:57.380Z,95625.75
2023-02-03T12:25:37.247Z,95619.44
2023-02-03T12:28:04.024Z,95616.69
2023-02-03T12:30:40.546Z,95596.00
2023-02-03T12:33:19.130Z,95618.28
2023-02-03T12:35:55.872Z,95600.00
2023-02-03T12:38:35.238Z,95595.28
2023-02-03T12:41:10.489Z,95562.16
2023-02-03T12:43:49.876Z,95607.31
2023-02-03T12:46:28.622Z,95589.16
2023-02-03T12:49:09.468Z,95571.91
2023-02-03T12:52:21.241Z,95587.69
2023-02-03T12:55:03.980Z,95556.63
2023-02-03T12:57:37.567Z,95557.44
2023-02-03T13:00:04.591Z,95539.13
2023-02-03T13:02:41.068Z,95545.00
2023-02-03T13:05:26.746Z,95527.88
2023-02-03T13:08:10.814Z,95533.97
2023-02-03T13:10:48.828Z,95560.88
2023-02-03T13:13:21.838Z,95554.81
2023-02-03T13:15:52.684Z,95517.44
2023-02-03T13:18:29.794Z,95514.19
2023-02-03T13:20:57.067Z,95506.19
2023-02-03T13:23:24.966Z,95490.97
2023-02-03T13:26:16.369Z,95493.50
2023-02-03T13:28:58.207Z,95502.22
2023-02-03T13:31:31.197Z,95486.19
2023-02-03T13:34:10.014Z,95504.84
2023-02-03T13:36:49.125Z,95499.84
2023-02-03T13:39:15.750Z,95517.53
2023-02-03T13:41:52.177Z,95498.69
2023-02-03T13:44:25.174Z,95479.78
2023-02-03T13:46:52.952Z,95480.56
2023-02-03T13:49:27.525Z,95457.97
2023-02-03T13:51:55.270Z,95497.09
2023-02-03T13:54:29.257Z,95471.34
2023-02-03T13:57:01.418Z,95474.28
2023-02-03T13:59:39.001Z,95464.94
2023-02-03T14:02:23.693Z,95474.47
2023-02-03T14:04:54.357Z,95475.25
2023-02-03T14:07:27.127Z,95460.22
2023-02-03T14:10:18.152Z,95481.78
2023-02-03T14:12:50.572Z,95472.16
2023-02-03T14:15:22.542Z,95459.56
2023-02-03T14:17:52.254Z,95461.31
2023-02-03T14:20:25.547Z,95460.25
2023-02-03T14:22:57.554Z,95451.88
2023-02-03T14:25:27.307Z,95447.81
2023-02-03T14:28:05.168Z,95413.19
2023-02-03T14:30:31.944Z,95438.44
2023-02-03T14:33:01.732Z,95414.34
2023-02-03T14:35:40.724Z,95404.03
2023-02-03T14:38:11.202Z,95408.31
2023-02-03T14:40:46.785Z,95402.97
2023-02-03T14:43:35.464Z,95421.53
2023-02-03T14:46:08.526Z,95435.06
2023-02-03T14:49:04.640Z,95429.78
2023-02-03T14:51:31.524Z,95394.44
2023-02-03T14:54:36.471Z,95421.91
2023-02-03T14:57:37.220Z,95419.00
2023-02-03T15:00:07.335Z,95420.41
2023-02-03T15:02:35.194Z,95380.91
2023-02-03T15:05:14.249Z,95384.34
2023-02-03T15:07:48.776Z,95375.84
2023-02-03T15:10:17.777Z,95355.13
2023-02-03T15:12:53.305Z,95366.41
2023-02-03T15:15:21.543Z,95349.00
2023-02-03T15:17:53.690Z,95348.81
2023-02-03T15:20:32.613Z,95342.41
2023-02-03T15:22:59.794Z,95352.06
2023-02-03T15:25:30.524Z,95350.16
2023-02-03T15:28:20.017Z,95332.97
2023-02-03T15:30:52.719Z,95348.50
2023-02-03T15:33:23.229Z,95351.25
2023-02-03T15:35:57.489Z,95330.66
2023-02-03T15:38:38.930Z,95338.41
2023-02-03T15:41:13.572Z,95350.84
2023-02-03T15:43:44.589Z,95370.44
2023-02-03T15:46:19.488Z,95410.78
2023-02-03T15:48:55.225Z,95405.88
2023-02-03T15:51:29.192Z,95390.13
2023-02-03T15:54:30.818Z,95389.41
2023-02-03T15:57:02.145Z,95327.84
2023-02-03T15:59:36.736Z,95346.09
2023-02-03T16:02:29.451Z,95340.47
2023-02-03T16:04:57.413Z,95349.88
2023-02-03T16:07:27.822Z,95350.09
2023-02-03T16:09:57.916Z,95339.47
2023-02-03T16:12:35.782Z,95350.16
2023-02-03T16:15:03.066Z,95354.00
2023-02-03T16:17:32.182Z,95335.44
2023-02-03T16:20:21.885Z,95323.44
2023-02-03T16:23:01.052Z,95359.09
2023-02-03T16:25:31.460Z,95377.63
2023-02-03T16:28:29.260Z,95365.00
2023-02-03T16:31:20.664Z,95351.94
2023-02-03T16:34:08.132Z,95352.06
2023-02-03T16:36:58.554Z,95352.94
2023-02-03T16:39:45.383Z,95351.84
2023-02-03T16:42:36.684Z,95312.66
2023-02-03T16:45:23.494Z,95347.22
2023-02-03T16:48:08.839Z,95369.91
2023-02-03T16:50:58.255Z,95384.91
2023-02-03T16:53:30.227Z,95365.22
2023-02-03T16:56:00.231Z,95429.84
2023-02-03T16:58:27.411Z,95446.78
2023-02-03T17:00:55.313Z,95445.66
2023-02-03T17:03:25.740Z,95436.78
2023-02-03T17:05:53.064Z,95413.75
2023-02-03T17:08:23.697Z,95449.25
2023-02-03T17:10:51.174Z,95466.44
2023-02-03T17:13:21.531Z,95440.56
2023-02-03T17:15:55.428Z,95431.56
2023-02-03T17:18:22.817Z,95410.63
2023-02-03T17:20:50.242Z,95423.88
2023-02-03T17:23:18.231Z,95426.47
2023-02-03T17:25:46.752Z,95421.84
2023-02-03T17:28:14.093Z,95444.72
2023-02-03T17:30:41.175Z,95434.50
2023-02-03T17:33:12.072Z,95436.91
2023-02-03T17:35:43.929Z,95457.75
2023-02-03T17:38:12.784Z,95443.81
2023-02-03T17:54:26.987Z,95449.19
2023-02-03T17:56:53.823Z,95432.34
2023-02-03T17:59:20.691Z,95422.03
2023-02-03T18:01:48.057Z,95399.94
2023-02-03T18:04:14.943Z,95430.53
2023-02-03T18:06:41.932Z,95398.34
2023-02-03T18:09:10.311Z,95426.53
2023-02-03T18:11:38.029Z,95420.13
2023-02-03T18:14:05.618Z,95415.69
2023-02-03T18:16:34.946Z,95414.34
2023-02-03T18:19:05.903Z,95410.25
2023-02-03T18:21:33.118Z,95392.69
2023-02-03T18:24:02.369Z,95408.94
2023-02-03T18:26:34.399Z,95403.16
2023-02-03T18:29:01.688Z,95394.81
2023-02-03T18:31:29.405Z,95406.66
2023-02-03T18:33:56.844Z,95405.66
2023-02-03T18:36:23.613Z,95398.22
2023-02-03T18:38:50.901Z,95396.97
2023-02-03T18:41:21.053Z,95396.19
2023-02-03T18:43:49.341Z,95378.81
2023-02-03T18:46:27.506Z,95376.13
2023-02-03T18:48:56.165Z,95386.03
2023-02-03T18:51:24.560Z,95403.19
2023-02-03T18:53:51.907Z,95391.19
2023-02-03T18:56:21.219Z,95372.50
2023-02-03T18:58:48.307Z,95335.78
2023-02-03T19:01:25.566Z,95343.91
2023-02-03T19:03:54.509Z,95322.19
2023-02-03T19:06:22.652Z,95332.31
2023-02-03T19:08:49.344Z,95345.47
2023-02-03T19:11:16.227Z,95340.97
2023-02-03T19:13:43.490Z,95326.16
2023-02-03T19:16:14.534Z,95294.16
2023-02-03T19:18:41.367Z,95302.53
2023-02-03T19:21:08.193Z,95265.13
2023-02-03T19:23:34.957Z,95296.69
2023-02-03T19:26:02.806Z,95275.59
2023-02-03T19:28:31.167Z,95295.66
2023-02-03T19:31:24.958Z,95285.13
2023-02-03T19:33:51.765Z,95274.31
2023-02-03T19:36:19.263Z,95269.22
2023-02-03T19:38:46.020Z,95291.34
2023-02-03T19:41:13.067Z,95260.44
2023-02-03T19:43:40.299Z,95309.09
2023-02-03T19:46:08.347Z,95309.81
2023-02-03T19:48:36.538Z,95305.56
2023-02-03T19:51:03.605Z,95298.38
2023-02-03T19:53:30.472Z,95318.06
2023-02-03T19:55:57.344Z,95299.19
2023-02-03T19:58:24.189Z,95306.47
2023-02-03T20:00:51.765Z,95269.34
2023-02-03T20:03:19.785Z,95282.63
2023-02-03T20:05:47.021Z,95263.56
2023-02-03T20:08:14.970Z,95274.81
2023-02-03T20:10:44.704Z,95283.31
2023-02-03T20:13:13.014Z,95284.81
2023-02-03T20:15:39.966Z,95271.59
2023-02-03T20:18:07.246Z,95262.50
2023-02-03T20:20:35.221Z,95271.44
2023-02-03T20:23:01.981Z,95312.06
2023-02-03T20:25:28.898Z,95301.53
2023-02-03T20:27:57.489Z,95301.78
2023-02-03T20:30:24.265Z,95310.78
2023-02-03T20:32:51.221Z,95273.22
2023-02-03T20:35:18.281Z,95307.72
2023-02-03T20:37:45.384Z,95315.25
2023-02-03T20:40:17.598Z,95286.31
2023-02-03T20:42:44.512Z,95277.53
2023-02-03T20:45:16.577Z,95286.22
2023-02-03T20:47:44.625Z,95290.03
2023-02-03T20:50:21.571Z,95280.28
2023-02-03T20:52:51.179Z,95280.56
2023-02-03T20:55:20.397Z,95279.91
2023-02-03T20:57:55.934Z,95299.97
2023-02-03T21:00:25.795Z,95297.47
2023-02-03T21:03:11.945Z,95313.28
2023-02-03T21:05:45.780Z,95303.34
2023-02-03T21:08:17.619Z,95325.03
2023-02-03T21:10:46.647Z,95333.59
2023-02-03T21:13:41.454Z,95351.41
2023-02-03T21:16:27.837Z,95346.88
2023-02-03T21:18:56.718Z,95336.22
2023-02-03T21:21:35.261Z,95336.06
2023-02-03T21:24:20.126Z,95359.69
2023-02-03T21:26:46.908Z,95354.72
2023-02-03T21:29:22.880Z,95325.34
2023-02-03T21:31:50.069Z,95345.03
2023-02-03T21:34:31.558Z,95330.72
2023-02-03T21:37:08.082Z,95326.81
2023-02-03T21:39:35.441Z,95303.81
2023-02-03T21:42:45.553Z,95329.41
2023-02-03T21:45:18.055Z,95327.91
2023-02-03T21:47:46.871Z,95319.69
2023-02-03T21:50:32.518Z,95323.56
2023-02-03T21:53:05.529Z,95325.31
2023-02-03T21:55:32.248Z,95320.31
2023-02-03T21:58:01.548Z,95340.09
2023-02-03T22:00:47.848Z,95335.47
2023-02-03T22:03:26.806Z,95356.88
2023-02-03T22:06:13.487Z,95346.81
2023-02-03T22:08:48.428Z,95333.59
2023-02-03T22:11:18.441Z,95333.09
2023-02-03T22:13:45.392Z,95322.50
2023-02-03T22:16:14.418Z,95356.59
2023-02-03T22:18:44.521Z,95357.94
2023-02-03T22:21:11.740Z,95382.47
2023-02-03T22:23:40.083Z,95328.09
2023-02-03T22:26:08.018Z,95357.56
2023-02-03T22:28:35.545Z,95356.13
2023-02-03T22:31:05.725Z,95351.59
2023-02-03T22:33:32.557Z,95346.91
2023-02-03T22:35:59.509Z,95372.84
2023-02-03T22:38:26.636Z,95367.81
2023-02-03T22:40:53.666Z,95397.09
2023-02-03T22:43:20.843Z,95405.81
2023-02-03T22:45:47.715Z,95390.56
2023-02-03T22:48:14.764Z,95385.84
2023-02-03T22:50:41.747Z,95405.00
2023-02-03T22:53:09.424Z,95391.59
2023-02-03T22:55:37.763Z,95398.28
2023-02-03T22:58:06.618Z,95421.38
2023-02-03T23:00:34.298Z,95394.44
2023-02-03T23:03:01.871Z,95405.50
2023-02-03T23:05:28.702Z,95436.91
2023-02-03T23:07:55.464Z,95426.13
2023-02-03T23:10:24.885Z,95457.84
2023-02-03T23:12:52.289Z,95422.44
2023-02-03T23:15:19.173Z,95442.09
2023-02-03T23:17:46.127Z,95425.19
2023-02-03T23:20:14.784Z,95449.78
2023-02-03T23:22:41.951Z,95464.53
2023-02-03T23:25:09.052Z,95454.44
2023-02-03T23:27:36.251Z,95446.34
2023-02-03T23:30:04.206Z,95485.34
2023-02-03T23:32:33.314Z,95444.47
2023-02-03T23:35:19.779Z,95421.78
2023-02-03T23:37:47.276Z,95471.03
2023-02-03T23:40:14.188Z,95495.25
2023-02-03T23:42:40.904Z,95469.53
2023-02-03T23:45:11.735Z,95494.44
2023-02-03T23:47:40.284Z,95463.56
2023-02-03T23:50:08.976Z,95467.28
2023-02-03T23:52:35.935Z,95483.00
2023-02-03T23:55:09.062Z,95480.53
2023-02-03T23:57:35.859Z,95469.34
